Main page
METAR-TAF:

METAR-TAF

Airports :

Diori Hamani International Airport

Niamey, Niger

latitude: 13-29N, longitude: 002-10E, elevation: 223 m

Current weather observation

The report was made 1 hour and 2 minutes ago, at 17:00 UTC
Wind 11 kt from the East/Northeast
Temperature 30°C
Humidity 5%
Pressure 1012 hPa
Visibility: 4000 m
widespread dust

METAR: DRRN 271700Z 06011KT 4000 DU NSC 30/M13 Q1012 NOSIG

Time: 19:02 (18:02 UTC)

Forecast

The report was made 1 hour and 2 minutes ago, at 17:00 UTC
Forecast valid from 27 at 18 UTC to 28 at 24 UTC
Wind 10 kt from the East/Northeast
Visibility: 4000 m
widespread dust
Temporary
from 27 at 18 UTC to 27 at 20 UTC
Visibility: 2500 m
Temporary
from 28 at 08 UTC to 28 at 12 UTC
Wind 20 kt from the East
Visibility: 2000 m
Blowing dust

TAF: DRRN 271700Z 2718/2824 06010KT 4000 DU NSC TEMPO 2718/2720 2500 TEMPO 2808/2812 10020KT 2000 BLDU

Weather observations and forecasts of more than 4000 airports (METAR and TAF reports).

The available stations are represented by yellow and red dots on the map.

Hover mouse over dot to see the name of the station.

Then click to see weather observations and forecasts.

To change the map : click on the green buttons with a black cross to zoom in, on the green button with a dash to zoom out, or on the green arrows for adjacent maps.


METAR-TAF: